sensor_id;sensor_type;location;lat;lon;timestamp;P1;durP1;ratioP1;P2;durP2;ratioP2
73113;SDS011;61301;51.956;5.876;2023-01-24T00:00:37;15.95;;;12.40;;
73113;SDS011;61301;51.956;5.876;2023-01-24T00:03:03;17.63;;;13.48;;
73113;SDS011;61301;51.956;5.876;2023-01-24T00:05:29;20.30;;;13.60;;
73113;SDS011;61301;51.956;5.876;2023-01-24T00:07:55;18.80;;;13.75;;
73113;SDS011;61301;51.956;5.876;2023-01-24T00:10:21;18.48;;;12.68;;
73113;SDS011;61301;51.956;5.876;2023-01-24T00:12:48;18.35;;;14.50;;
73113;SDS011;61301;51.956;5.876;2023-01-24T00:15:14;19.33;;;13.18;;
73113;SDS011;61301;51.956;5.876;2023-01-24T00:17:40;12.95;;;10.13;;
73113;SDS011;61301;51.956;5.876;2023-01-24T00:20:06;19.38;;;12.05;;
73113;SDS011;61301;51.956;5.876;2023-01-24T00:22:32;13.95;;;10.68;;
73113;SDS011;61301;51.956;5.876;2023-01-24T00:24:58;12.23;;;9.85;;
73113;SDS011;61301;51.956;5.876;2023-01-24T00:27:24;16.33;;;12.20;;
73113;SDS011;61301;51.956;5.876;2023-01-24T00:29:50;17.25;;;12.27;;
73113;SDS011;61301;51.956;5.876;2023-01-24T00:32:16;17.58;;;12.48;;
73113;SDS011;61301;51.956;5.876;2023-01-24T00:34:42;13.48;;;10.70;;
73113;SDS011;61301;51.956;5.876;2023-01-24T00:37:08;14.57;;;10.68;;
73113;SDS011;61301;51.956;5.876;2023-01-24T00:39:34;17.63;;;11.98;;
73113;SDS011;61301;51.956;5.876;2023-01-24T00:42:00;14.00;;;9.73;;
73113;SDS011;61301;51.956;5.876;2023-01-24T00:44:26;14.63;;;11.02;;
73113;SDS011;61301;51.956;5.876;2023-01-24T00:46:52;16.00;;;12.23;;
73113;SDS011;61301;51.956;5.876;2023-01-24T00:49:19;14.90;;;11.05;;
73113;SDS011;61301;51.956;5.876;2023-01-24T00:51:45;13.45;;;10.35;;
73113;SDS011;61301;51.956;5.876;2023-01-24T00:54:11;15.38;;;10.80;;
73113;SDS011;61301;51.956;5.876;2023-01-24T00:56:37;13.57;;;10.07;;
73113;SDS011;61301;51.956;5.876;2023-01-24T00:59:03;11.93;;;9.20;;
73113;SDS011;61301;51.956;5.876;2023-01-24T01:01:29;15.18;;;11.25;;
73113;SDS011;61301;51.956;5.876;2023-01-24T01:03:55;13.35;;;9.45;;
73113;SDS011;61301;51.956;5.876;2023-01-24T01:06:22;15.75;;;11.45;;
73113;SDS011;61301;51.956;5.876;2023-01-24T01:08:49;13.30;;;10.40;;
73113;SDS011;61301;51.956;5.876;2023-01-24T01:11:16;14.57;;;10.93;;
73113;SDS011;61301;51.956;5.876;2023-01-24T01:13:42;13.30;;;8.65;;
73113;SDS011;61301;51.956;5.876;2023-01-24T01:16:12;13.65;;;10.57;;
73113;SDS011;61301;51.956;5.876;2023-01-24T01:18:41;11.88;;;9.40;;
73113;SDS011;61301;51.956;5.876;2023-01-24T01:21:09;14.18;;;9.73;;
73113;SDS011;61301;51.956;5.876;2023-01-24T01:23:37;14.77;;;10.98;;
73113;SDS011;61301;51.956;5.876;2023-01-24T01:26:05;14.73;;;10.45;;
73113;SDS011;61301;51.956;5.876;2023-01-24T01:28:33;14.30;;;10.75;;
73113;SDS011;61301;51.956;5.876;2023-01-24T01:30:59;15.82;;;11.20;;
73113;SDS011;61301;51.956;5.876;2023-01-24T01:33:25;15.48;;;10.93;;
73113;SDS011;61301;51.956;5.876;2023-01-24T01:35:51;13.65;;;10.70;;
73113;SDS011;61301;51.956;5.876;2023-01-24T01:38:18;11.95;;;8.70;;
73113;SDS011;61301;51.956;5.876;2023-01-24T01:40:45;16.10;;;11.38;;
73113;SDS011;61301;51.956;5.876;2023-01-24T01:43:12;17.73;;;12.48;;
73113;SDS011;61301;51.956;5.876;2023-01-24T01:45:44;16.65;;;11.95;;
73113;SDS011;61301;51.956;5.876;2023-01-24T01:48:17;14.60;;;11.45;;
73113;SDS011;61301;51.956;5.876;2023-01-24T01:53:24;15.73;;;12.02;;
73113;SDS011;61301;51.956;5.876;2023-01-24T01:55:57;14.68;;;10.10;;
73113;SDS011;61301;51.956;5.876;2023-01-24T01:58:30;15.70;;;11.27;;
73113;SDS011;61301;51.956;5.876;2023-01-24T02:00:57;17.52;;;11.80;;
73113;SDS011;61301;51.956;5.876;2023-01-24T02:03:27;18.63;;;12.90;;
73113;SDS011;61301;51.956;5.876;2023-01-24T02:06:18;18.10;;;13.18;;
73113;SDS011;61301;51.956;5.876;2023-01-24T02:08:52;15.70;;;10.98;;
73113;SDS011;61301;51.956;5.876;2023-01-24T02:11:19;18.27;;;12.55;;
73113;SDS011;61301;51.956;5.876;2023-01-24T02:14:06;15.55;;;11.55;;
73113;SDS011;61301;51.956;5.876;2023-01-24T02:16:53;16.02;;;11.85;;
73113;SDS011;61301;51.956;5.876;2023-01-24T02:22:03;16.42;;;10.90;;
73113;SDS011;61301;51.956;5.876;2023-01-24T02:24:40;15.27;;;11.70;;
73113;SDS011;61301;51.956;5.876;2023-01-24T02:27:11;16.90;;;13.38;;
73113;SDS011;61301;51.956;5.876;2023-01-24T02:29:37;16.95;;;13.07;;
73113;SDS011;61301;51.956;5.876;2023-01-24T02:32:06;15.38;;;11.13;;
73113;SDS011;61301;51.956;5.876;2023-01-24T02:34:33;17.77;;;12.70;;
73113;SDS011;61301;51.956;5.876;2023-01-24T02:37:00;18.38;;;13.73;;
73113;SDS011;61301;51.956;5.876;2023-01-24T02:39:30;17.17;;;12.15;;
73113;SDS011;61301;51.956;5.876;2023-01-24T02:42:02;17.13;;;12.55;;
73113;SDS011;61301;51.956;5.876;2023-01-24T02:47:11;20.13;;;14.98;;
73113;SDS011;61301;51.956;5.876;2023-01-24T02:49:37;18.35;;;13.50;;
73113;SDS011;61301;51.956;5.876;2023-01-24T02:52:03;19.40;;;13.20;;
73113;SDS011;61301;51.956;5.876;2023-01-24T02:54:48;18.88;;;13.75;;
73113;SDS011;61301;51.956;5.876;2023-01-24T02:57:14;16.98;;;11.95;;
73113;SDS011;61301;51.956;5.876;2023-01-24T02:59:58;20.70;;;15.00;;
73113;SDS011;61301;51.956;5.876;2023-01-24T03:02:26;20.27;;;14.10;;
73113;SDS011;61301;51.956;5.876;2023-01-24T03:04:52;19.80;;;13.80;;
73113;SDS011;61301;51.956;5.876;2023-01-24T03:07:18;17.40;;;12.75;;
73113;SDS011;61301;51.956;5.876;2023-01-24T03:09:50;18.98;;;14.13;;
73113;SDS011;61301;51.956;5.876;2023-01-24T03:12:20;19.95;;;14.00;;
73113;SDS011;61301;51.956;5.876;2023-01-24T03:15:05;22.90;;;15.88;;
73113;SDS011;61301;51.956;5.876;2023-01-24T03:17:50;19.95;;;14.70;;
73113;SDS011;61301;51.956;5.876;2023-01-24T03:20:35;18.98;;;14.38;;
73113;SDS011;61301;51.956;5.876;2023-01-24T03:23:20;16.58;;;12.48;;
73113;SDS011;61301;51.956;5.876;2023-01-24T03:26:04;15.98;;;11.93;;
73113;SDS011;61301;51.956;5.876;2023-01-24T03:28:49;17.80;;;12.65;;
73113;SDS011;61301;51.956;5.876;2023-01-24T03:31:34;17.20;;;12.73;;
73113;SDS011;61301;51.956;5.876;2023-01-24T03:34:22;17.13;;;13.15;;
73113;SDS011;61301;51.956;5.876;2023-01-24T03:37:07;19.83;;;14.88;;
73113;SDS011;61301;51.956;5.876;2023-01-24T03:39:33;18.08;;;13.88;;
73113;SDS011;61301;51.956;5.876;2023-01-24T03:42:18;16.27;;;12.38;;
73113;SDS011;61301;51.956;5.876;2023-01-24T03:44:46;20.00;;;14.35;;
73113;SDS011;61301;51.956;5.876;2023-01-24T03:47:12;18.42;;;13.30;;
73113;SDS011;61301;51.956;5.876;2023-01-24T03:49:38;18.63;;;14.10;;
73113;SDS011;61301;51.956;5.876;2023-01-24T03:52:23;23.40;;;16.10;;
73113;SDS011;61301;51.956;5.876;2023-01-24T03:54:58;19.10;;;13.75;;
73113;SDS011;61301;51.956;5.876;2023-01-24T03:57:26;20.67;;;15.20;;
73113;SDS011;61301;51.956;5.876;2023-01-24T03:59:55;19.30;;;13.60;;
73113;SDS011;61301;51.956;5.876;2023-01-24T04:02:22;19.55;;;14.40;;
73113;SDS011;61301;51.956;5.876;2023-01-24T04:04:48;21.60;;;15.18;;
73113;SDS011;61301;51.956;5.876;2023-01-24T04:07:33;17.33;;;13.32;;
73113;SDS011;61301;51.956;5.876;2023-01-24T04:10:03;18.05;;;13.20;;
73113;SDS011;61301;51.956;5.876;2023-01-24T04:12:36;19.83;;;15.02;;
73113;SDS011;61301;51.956;5.876;2023-01-24T04:15:03;15.70;;;12.18;;
73113;SDS011;61301;51.956;5.876;2023-01-24T04:17:30;19.63;;;14.38;;
73113;SDS011;61301;51.956;5.876;2023-01-24T04:19:57;18.98;;;13.88;;
73113;SDS011;61301;51.956;5.876;2023-01-24T04:22:24;18.77;;;14.20;;
73113;SDS011;61301;51.956;5.876;2023-01-24T04:24:52;21.70;;;15.23;;
73113;SDS011;61301;51.956;5.876;2023-01-24T04:27:20;18.05;;;14.10;;
73113;SDS011;61301;51.956;5.876;2023-01-24T04:30:15;21.10;;;15.88;;
73113;SDS011;61301;51.956;5.876;2023-01-24T04:32:46;20.30;;;14.77;;
73113;SDS011;61301;51.956;5.876;2023-01-24T04:35:21;19.58;;;15.10;;
73113;SDS011;61301;51.956;5.876;2023-01-24T04:40:56;18.45;;;13.02;;
73113;SDS011;61301;51.956;5.876;2023-01-24T04:43:23;19.75;;;14.23;;
73113;SDS011;61301;51.956;5.876;2023-01-24T04:45:53;21.00;;;14.50;;
73113;SDS011;61301;51.956;5.876;2023-01-24T04:48:21;21.23;;;16.17;;
73113;SDS011;61301;51.956;5.876;2023-01-24T04:50:47;25.08;;;17.75;;
73113;SDS011;61301;51.956;5.876;2023-01-24T04:53:13;23.92;;;16.77;;
73113;SDS011;61301;51.956;5.876;2023-01-24T04:55:42;23.35;;;16.42;;
73113;SDS011;61301;51.956;5.876;2023-01-24T04:58:09;18.27;;;13.70;;
73113;SDS011;61301;51.956;5.876;2023-01-24T05:00:35;18.50;;;14.15;;
73113;SDS011;61301;51.956;5.876;2023-01-24T05:03:01;20.77;;;14.75;;
73113;SDS011;61301;51.956;5.876;2023-01-24T05:05:27;21.30;;;14.95;;
73113;SDS011;61301;51.956;5.876;2023-01-24T05:07:53;20.33;;;13.93;;
73113;SDS011;61301;51.956;5.876;2023-01-24T05:10:20;21.73;;;15.93;;
73113;SDS011;61301;51.956;5.876;2023-01-24T05:12:48;24.52;;;17.48;;
73113;SDS011;61301;51.956;5.876;2023-01-24T05:15:19;20.50;;;15.40;;
73113;SDS011;61301;51.956;5.876;2023-01-24T05:17:47;24.08;;;17.48;;
73113;SDS011;61301;51.956;5.876;2023-01-24T05:20:17;21.55;;;16.35;;
73113;SDS011;61301;51.956;5.876;2023-01-24T05:22:43;19.27;;;15.50;;
73113;SDS011;61301;51.956;5.876;2023-01-24T05:25:14;21.58;;;15.50;;
73113;SDS011;61301;51.956;5.876;2023-01-24T05:27:44;24.05;;;17.55;;
73113;SDS011;61301;51.956;5.876;2023-01-24T05:30:11;21.20;;;15.07;;
73113;SDS011;61301;51.956;5.876;2023-01-24T05:32:38;23.80;;;17.00;;
73113;SDS011;61301;51.956;5.876;2023-01-24T05:35:04;23.08;;;16.83;;
73113;SDS011;61301;51.956;5.876;2023-01-24T05:37:31;26.15;;;19.00;;
73113;SDS011;61301;51.956;5.876;2023-01-24T05:39:57;23.27;;;16.40;;
73113;SDS011;61301;51.956;5.876;2023-01-24T05:42:23;21.92;;;15.43;;
73113;SDS011;61301;51.956;5.876;2023-01-24T05:44:54;24.00;;;17.73;;
73113;SDS011;61301;51.956;5.876;2023-01-24T05:47:20;22.00;;;17.48;;
73113;SDS011;61301;51.956;5.876;2023-01-24T05:49:46;22.55;;;17.17;;
73113;SDS011;61301;51.956;5.876;2023-01-24T05:52:12;20.92;;;14.93;;
73113;SDS011;61301;51.956;5.876;2023-01-24T05:54:49;21.60;;;15.13;;
73113;SDS011;61301;51.956;5.876;2023-01-24T05:57:28;19.80;;;15.13;;
73113;SDS011;61301;51.956;5.876;2023-01-24T06:00:12;27.90;;;18.15;;
73113;SDS011;61301;51.956;5.876;2023-01-24T06:02:49;26.15;;;19.65;;
73113;SDS011;61301;51.956;5.876;2023-01-24T06:05:16;25.77;;;17.35;;
73113;SDS011;61301;51.956;5.876;2023-01-24T06:07:42;23.00;;;16.50;;
73113;SDS011;61301;51.956;5.876;2023-01-24T06:10:08;19.70;;;14.73;;
73113;SDS011;61301;51.956;5.876;2023-01-24T06:12:49;23.52;;;17.75;;
73113;SDS011;61301;51.956;5.876;2023-01-24T06:15:15;24.88;;;17.77;;
73113;SDS011;61301;51.956;5.876;2023-01-24T06:17:41;21.13;;;15.35;;
73113;SDS011;61301;51.956;5.876;2023-01-24T06:20:09;23.52;;;16.80;;
73113;SDS011;61301;51.956;5.876;2023-01-24T06:23:13;19.23;;;14.05;;
73113;SDS011;61301;51.956;5.876;2023-01-24T06:25:33;24.02;;;18.05;;
73113;SDS011;61301;51.956;5.876;2023-01-24T06:28:00;26.02;;;18.88;;
73113;SDS011;61301;51.956;5.876;2023-01-24T06:30:26;24.77;;;17.50;;
73113;SDS011;61301;51.956;5.876;2023-01-24T06:33:14;25.60;;;18.55;;
73113;SDS011;61301;51.956;5.876;2023-01-24T06:36:07;24.30;;;17.58;;
73113;SDS011;61301;51.956;5.876;2023-01-24T06:38:50;25.40;;;18.05;;
73113;SDS011;61301;51.956;5.876;2023-01-24T06:41:16;27.40;;;19.52;;
73113;SDS011;61301;51.956;5.876;2023-01-24T06:43:43;22.33;;;15.80;;
73113;SDS011;61301;51.956;5.876;2023-01-24T06:46:10;26.48;;;17.92;;
73113;SDS011;61301;51.956;5.876;2023-01-24T06:48:37;22.95;;;15.55;;
73113;SDS011;61301;51.956;5.876;2023-01-24T06:51:04;23.60;;;17.52;;
73113;SDS011;61301;51.956;5.876;2023-01-24T06:53:33;21.52;;;16.17;;
73113;SDS011;61301;51.956;5.876;2023-01-24T06:55:59;20.88;;;15.43;;
73113;SDS011;61301;51.956;5.876;2023-01-24T06:58:26;21.10;;;15.35;;
73113;SDS011;61301;51.956;5.876;2023-01-24T07:00:52;25.23;;;18.17;;
73113;SDS011;61301;51.956;5.876;2023-01-24T07:03:18;26.77;;;19.00;;
73113;SDS011;61301;51.956;5.876;2023-01-24T07:05:44;24.88;;;18.20;;
73113;SDS011;61301;51.956;5.876;2023-01-24T07:08:12;23.80;;;16.33;;
73113;SDS011;61301;51.956;5.876;2023-01-24T07:10:38;22.52;;;15.93;;
73113;SDS011;61301;51.956;5.876;2023-01-24T07:13:05;20.50;;;15.13;;
73113;SDS011;61301;51.956;5.876;2023-01-24T07:15:31;22.27;;;14.43;;
73113;SDS011;61301;51.956;5.876;2023-01-24T07:18:05;23.60;;;16.25;;
73113;SDS011;61301;51.956;5.876;2023-01-24T07:20:33;22.67;;;16.42;;
73113;SDS011;61301;51.956;5.876;2023-01-24T07:22:59;26.75;;;18.95;;
73113;SDS011;61301;51.956;5.876;2023-01-24T07:25:26;23.75;;;17.02;;
73113;SDS011;61301;51.956;5.876;2023-01-24T07:27:52;23.10;;;16.45;;
73113;SDS011;61301;51.956;5.876;2023-01-24T07:30:18;26.40;;;18.90;;
73113;SDS011;61301;51.956;5.876;2023-01-24T07:32:44;28.67;;;20.92;;
73113;SDS011;61301;51.956;5.876;2023-01-24T07:35:10;29.25;;;19.83;;
73113;SDS011;61301;51.956;5.876;2023-01-24T07:37:36;25.95;;;17.73;;
73113;SDS011;61301;51.956;5.876;2023-01-24T07:40:03;25.75;;;18.52;;
73113;SDS011;61301;51.956;5.876;2023-01-24T07:42:29;25.83;;;18.58;;
73113;SDS011;61301;51.956;5.876;2023-01-24T07:44:55;26.58;;;19.30;;
73113;SDS011;61301;51.956;5.876;2023-01-24T07:47:22;28.27;;;19.35;;
73113;SDS011;61301;51.956;5.876;2023-01-24T07:49:49;24.17;;;16.92;;
73113;SDS011;61301;51.956;5.876;2023-01-24T07:52:15;28.92;;;19.95;;
73113;SDS011;61301;51.956;5.876;2023-01-24T07:54:41;30.90;;;21.05;;
73113;SDS011;61301;51.956;5.876;2023-01-24T07:57:07;22.52;;;18.02;;
73113;SDS011;61301;51.956;5.876;2023-01-24T07:59:33;27.25;;;20.40;;
73113;SDS011;61301;51.956;5.876;2023-01-24T08:01:59;24.33;;;17.35;;
73113;SDS011;61301;51.956;5.876;2023-01-24T08:04:25;31.00;;;20.02;;
73113;SDS011;61301;51.956;5.876;2023-01-24T08:06:51;27.80;;;20.20;;
73113;SDS011;61301;51.956;5.876;2023-01-24T08:09:36;29.33;;;20.67;;
73113;SDS011;61301;51.956;5.876;2023-01-24T08:12:02;27.75;;;21.23;;
73113;SDS011;61301;51.956;5.876;2023-01-24T08:14:28;30.42;;;20.92;;
73113;SDS011;61301;51.956;5.876;2023-01-24T08:16:54;25.08;;;18.17;;
73113;SDS011;61301;51.956;5.876;2023-01-24T08:19:20;31.08;;;21.50;;
73113;SDS011;61301;51.956;5.876;2023-01-24T08:21:46;26.45;;;19.58;;
73113;SDS011;61301;51.956;5.876;2023-01-24T08:24:12;29.60;;;20.70;;
73113;SDS011;61301;51.956;5.876;2023-01-24T08:26:38;27.58;;;19.15;;
73113;SDS011;61301;51.956;5.876;2023-01-24T08:29:04;26.90;;;20.20;;
73113;SDS011;61301;51.956;5.876;2023-01-24T08:31:29;27.40;;;20.45;;
73113;SDS011;61301;51.956;5.876;2023-01-24T08:33:55;25.10;;;18.33;;
73113;SDS011;61301;51.956;5.876;2023-01-24T08:36:21;25.77;;;16.63;;
73113;SDS011;61301;51.956;5.876;2023-01-24T08:38:50;26.73;;;17.70;;
73113;SDS011;61301;51.956;5.876;2023-01-24T08:41:16;23.70;;;16.63;;
73113;SDS011;61301;51.956;5.876;2023-01-24T08:43:42;27.55;;;19.95;;
73113;SDS011;61301;51.956;5.876;2023-01-24T08:46:08;28.98;;;21.13;;
73113;SDS011;61301;51.956;5.876;2023-01-24T08:48:34;26.55;;;18.67;;
73113;SDS011;61301;51.956;5.876;2023-01-24T08:51:03;25.70;;;18.05;;
73113;SDS011;61301;51.956;5.876;2023-01-24T08:53:32;25.23;;;17.92;;
73113;SDS011;61301;51.956;5.876;2023-01-24T08:55:58;28.77;;;19.05;;
73113;SDS011;61301;51.956;5.876;2023-01-24T08:58:24;27.52;;;19.80;;
73113;SDS011;61301;51.956;5.876;2023-01-24T09:00:50;26.80;;;19.50;;
73113;SDS011;61301;51.956;5.876;2023-01-24T09:03:17;25.15;;;17.15;;
73113;SDS011;61301;51.956;5.876;2023-01-24T09:05:44;26.45;;;20.30;;
73113;SDS011;61301;51.956;5.876;2023-01-24T09:08:10;25.23;;;19.27;;
73113;SDS011;61301;51.956;5.876;2023-01-24T09:10:37;22.77;;;17.70;;
73113;SDS011;61301;51.956;5.876;2023-01-24T09:13:03;23.02;;;16.85;;
73113;SDS011;61301;51.956;5.876;2023-01-24T09:15:30;27.25;;;19.02;;
73113;SDS011;61301;51.956;5.876;2023-01-24T09:17:59;21.80;;;16.83;;
73113;SDS011;61301;51.956;5.876;2023-01-24T09:20:26;30.13;;;20.42;;
73113;SDS011;61301;51.956;5.876;2023-01-24T09:22:52;23.52;;;18.40;;
73113;SDS011;61301;51.956;5.876;2023-01-24T09:25:18;24.88;;;18.20;;
73113;SDS011;61301;51.956;5.876;2023-01-24T09:27:44;23.77;;;18.10;;
73113;SDS011;61301;51.956;5.876;2023-01-24T09:30:18;21.92;;;15.80;;
73113;SDS011;61301;51.956;5.876;2023-01-24T09:32:44;24.98;;;19.05;;
73113;SDS011;61301;51.956;5.876;2023-01-24T09:35:10;26.05;;;18.63;;
73113;SDS011;61301;51.956;5.876;2023-01-24T09:37:36;23.17;;;16.70;;
73113;SDS011;61301;51.956;5.876;2023-01-24T09:40:02;21.35;;;16.15;;
73113;SDS011;61301;51.956;5.876;2023-01-24T09:47:51;23.48;;;18.63;;
73113;SDS011;61301;51.956;5.876;2023-01-24T09:50:21;26.58;;;18.70;;
73113;SDS011;61301;51.956;5.876;2023-01-24T09:52:54;22.83;;;16.38;;
73113;SDS011;61301;51.956;5.876;2023-01-24T09:55:25;22.50;;;17.17;;
73113;SDS011;61301;51.956;5.876;2023-01-24T09:57:56;26.10;;;15.57;;
73113;SDS011;61301;51.956;5.876;2023-01-24T10:03:00;24.95;;;18.45;;
73113;SDS011;61301;51.956;5.876;2023-01-24T10:05:34;27.23;;;19.42;;
73113;SDS011;61301;51.956;5.876;2023-01-24T10:10:59;22.33;;;15.75;;
73113;SDS011;61301;51.956;5.876;2023-01-24T10:24:30;19.08;;;15.32;;
73113;SDS011;61301;51.956;5.876;2023-01-24T10:26:58;22.35;;;16.88;;
73113;SDS011;61301;51.956;5.876;2023-01-24T10:29:32;19.08;;;15.32;;
73113;SDS011;61301;51.956;5.876;2023-01-24T10:32:14;16.75;;;13.38;;
73113;SDS011;61301;51.956;5.876;2023-01-24T10:34:46;18.60;;;13.52;;
73113;SDS011;61301;51.956;5.876;2023-01-24T10:39:43;22.35;;;15.27;;
73113;SDS011;61301;51.956;5.876;2023-01-24T10:42:12;18.90;;;14.35;;
73113;SDS011;61301;51.956;5.876;2023-01-24T10:44:59;16.55;;;14.25;;
73113;SDS011;61301;51.956;5.876;2023-01-24T10:47:45;17.45;;;12.38;;
73113;SDS011;61301;51.956;5.876;2023-01-24T10:50:17;24.70;;;18.33;;
73113;SDS011;61301;51.956;5.876;2023-01-24T10:52:43;23.17;;;16.33;;
73113;SDS011;61301;51.956;5.876;2023-01-24T10:55:33;19.13;;;15.70;;
73113;SDS011;61301;51.956;5.876;2023-01-24T10:58:03;20.90;;;15.90;;
73113;SDS011;61301;51.956;5.876;2023-01-24T11:00:47;18.30;;;14.23;;
73113;SDS011;61301;51.956;5.876;2023-01-24T11:03:27;15.85;;;12.48;;
73113;SDS011;61301;51.956;5.876;2023-01-24T11:05:56;21.48;;;15.93;;
73113;SDS011;61301;51.956;5.876;2023-01-24T11:08:31;19.67;;;14.70;;
73113;SDS011;61301;51.956;5.876;2023-01-24T11:11:00;19.58;;;14.98;;
73113;SDS011;61301;51.956;5.876;2023-01-24T11:13:47;17.88;;;13.65;;
73113;SDS011;61301;51.956;5.876;2023-01-24T11:18:51;18.05;;;13.70;;
73113;SDS011;61301;51.956;5.876;2023-01-24T11:21:19;17.48;;;13.52;;
73113;SDS011;61301;51.956;5.876;2023-01-24T11:23:45;19.80;;;15.05;;
73113;SDS011;61301;51.956;5.876;2023-01-24T11:26:30;16.40;;;12.75;;
73113;SDS011;61301;51.956;5.876;2023-01-24T11:31:38;18.33;;;13.70;;
73113;SDS011;61301;51.956;5.876;2023-01-24T11:51:00;11.38;;;9.63;;
73113;SDS011;61301;51.956;5.876;2023-01-24T12:09:53;15.88;;;12.25;;
73113;SDS011;61301;51.956;5.876;2023-01-24T12:12:46;13.23;;;10.48;;
73113;SDS011;61301;51.956;5.876;2023-01-24T12:21:33;12.23;;;10.00;;
73113;SDS011;61301;51.956;5.876;2023-01-24T12:24:08;11.82;;;9.15;;
73113;SDS011;61301;51.956;5.876;2023-01-24T12:26:43;16.67;;;12.57;;
73113;SDS011;61301;51.956;5.876;2023-01-24T12:29:17;13.23;;;10.00;;
73113;SDS011;61301;51.956;5.876;2023-01-24T12:34:41;16.65;;;12.35;;
73113;SDS011;61301;51.956;5.876;2023-01-24T12:39:54;12.93;;;10.10;;
73113;SDS011;61301;51.956;5.876;2023-01-24T12:48:33;13.98;;;11.10;;
73113;SDS011;61301;51.956;5.876;2023-01-24T12:59:07;12.00;;;9.93;;
73113;SDS011;61301;51.956;5.876;2023-01-24T13:07:06;14.75;;;10.65;;
73113;SDS011;61301;51.956;5.876;2023-01-24T13:09:44;9.63;;;8.50;;
73113;SDS011;61301;51.956;5.876;2023-01-24T13:12:22;11.73;;;9.52;;
73113;SDS011;61301;51.956;5.876;2023-01-24T13:15:03;12.43;;;9.10;;
73113;SDS011;61301;51.956;5.876;2023-01-24T13:20:24;13.88;;;10.43;;
73113;SDS011;61301;51.956;5.876;2023-01-24T13:34:32;13.52;;;10.50;;
73113;SDS011;61301;51.956;5.876;2023-01-24T13:37:01;11.57;;;9.45;;
73113;SDS011;61301;51.956;5.876;2023-01-24T13:39:29;16.27;;;10.75;;
73113;SDS011;61301;51.956;5.876;2023-01-24T13:42:43;10.65;;;8.45;;
73113;SDS011;61301;51.956;5.876;2023-01-24T13:44:57;11.32;;;9.43;;
73113;SDS011;61301;51.956;5.876;2023-01-24T13:47:24;12.35;;;8.60;;
73113;SDS011;61301;51.956;5.876;2023-01-24T14:00:54;11.48;;;9.52;;
73113;SDS011;61301;51.956;5.876;2023-01-24T14:03:23;12.57;;;10.52;;
73113;SDS011;61301;51.956;5.876;2023-01-24T14:06:04;12.27;;;9.68;;
73113;SDS011;61301;51.956;5.876;2023-01-24T14:08:34;12.13;;;9.68;;
73113;SDS011;61301;51.956;5.876;2023-01-24T14:16:54;9.43;;;7.72;;
73113;SDS011;61301;51.956;5.876;2023-01-24T14:24:20;12.70;;;10.40;;
73113;SDS011;61301;51.956;5.876;2023-01-24T14:26:52;12.45;;;9.93;;
73113;SDS011;61301;51.956;5.876;2023-01-24T14:29:20;12.02;;;10.05;;
73113;SDS011;61301;51.956;5.876;2023-01-24T14:31:50;10.73;;;8.85;;
73113;SDS011;61301;51.956;5.876;2023-01-24T14:34:20;12.48;;;9.63;;
73113;SDS011;61301;51.956;5.876;2023-01-24T14:36:47;12.43;;;8.90;;
73113;SDS011;61301;51.956;5.876;2023-01-24T14:39:24;12.65;;;9.55;;
73113;SDS011;61301;51.956;5.876;2023-01-24T14:41:57;12.07;;;10.00;;
73113;SDS011;61301;51.956;5.876;2023-01-24T14:44:35;14.57;;;10.55;;
73113;SDS011;61301;51.956;5.876;2023-01-24T14:47:27;18.27;;;10.18;;
73113;SDS011;61301;51.956;5.876;2023-01-24T14:49:55;8.90;;;6.88;;
73113;SDS011;61301;51.956;5.876;2023-01-24T14:52:23;10.15;;;8.30;;
73113;SDS011;61301;51.956;5.876;2023-01-24T14:55:01;12.18;;;9.82;;
73113;SDS011;61301;51.956;5.876;2023-01-24T14:57:57;14.35;;;10.88;;
73113;SDS011;61301;51.956;5.876;2023-01-24T15:00:39;13.10;;;9.43;;
73113;SDS011;61301;51.956;5.876;2023-01-24T15:03:05;12.70;;;9.55;;
73113;SDS011;61301;51.956;5.876;2023-01-24T15:05:32;10.98;;;8.45;;
73113;SDS011;61301;51.956;5.876;2023-01-24T15:08:06;10.50;;;7.20;;
73113;SDS011;61301;51.956;5.876;2023-01-24T15:10:41;14.07;;;9.95;;
73113;SDS011;61301;51.956;5.876;2023-01-24T15:13:08;10.48;;;8.02;;
73113;SDS011;61301;51.956;5.876;2023-01-24T15:15:42;10.40;;;7.85;;
73113;SDS011;61301;51.956;5.876;2023-01-24T15:18:19;12.35;;;7.82;;
73113;SDS011;61301;51.956;5.876;2023-01-24T15:20:54;10.05;;;7.03;;
73113;SDS011;61301;51.956;5.876;2023-01-24T15:23:21;8.35;;;6.22;;
73113;SDS011;61301;51.956;5.876;2023-01-24T15:25:52;9.00;;;7.05;;
73113;SDS011;61301;51.956;5.876;2023-01-24T15:28:20;10.25;;;8.07;;
73113;SDS011;61301;51.956;5.876;2023-01-24T15:30:55;12.60;;;9.90;;
73113;SDS011;61301;51.956;5.876;2023-01-24T15:33:23;10.50;;;9.15;;
73113;SDS011;61301;51.956;5.876;2023-01-24T15:35:49;11.48;;;8.52;;
73113;SDS011;61301;51.956;5.876;2023-01-24T15:38:18;8.63;;;7.20;;
73113;SDS011;61301;51.956;5.876;2023-01-24T15:40:54;10.02;;;7.90;;
73113;SDS011;61301;51.956;5.876;2023-01-24T15:49:15;10.85;;;7.75;;
73113;SDS011;61301;51.956;5.876;2023-01-24T15:54:32;13.13;;;9.63;;
73113;SDS011;61301;51.956;5.876;2023-01-24T15:57:01;11.95;;;8.60;;
73113;SDS011;61301;51.956;5.876;2023-01-24T15:59:29;7.43;;;5.82;;
73113;SDS011;61301;51.956;5.876;2023-01-24T16:01:56;9.75;;;7.00;;
73113;SDS011;61301;51.956;5.876;2023-01-24T16:04:22;10.65;;;8.02;;
73113;SDS011;61301;51.956;5.876;2023-01-24T16:06:49;13.55;;;9.95;;
73113;SDS011;61301;51.956;5.876;2023-01-24T16:09:15;11.55;;;7.72;;
73113;SDS011;61301;51.956;5.876;2023-01-24T16:11:43;12.50;;;8.88;;
73113;SDS011;61301;51.956;5.876;2023-01-24T16:14:12;11.20;;;8.82;;
73113;SDS011;61301;51.956;5.876;2023-01-24T16:16:42;11.65;;;9.57;;
73113;SDS011;61301;51.956;5.876;2023-01-24T16:19:12;11.23;;;9.20;;
73113;SDS011;61301;51.956;5.876;2023-01-24T16:21:43;9.93;;;7.90;;
73113;SDS011;61301;51.956;5.876;2023-01-24T16:24:10;12.93;;;7.90;;
73113;SDS011;61301;51.956;5.876;2023-01-24T16:26:36;11.05;;;8.27;;
73113;SDS011;61301;51.956;5.876;2023-01-24T16:29:15;11.00;;;9.30;;
73113;SDS011;61301;51.956;5.876;2023-01-24T16:31:44;12.70;;;9.38;;
73113;SDS011;61301;51.956;5.876;2023-01-24T16:34:10;12.95;;;9.38;;
73113;SDS011;61301;51.956;5.876;2023-01-24T16:36:37;10.73;;;8.60;;
73113;SDS011;61301;51.956;5.876;2023-01-24T16:39:03;10.52;;;8.57;;
73113;SDS011;61301;51.956;5.876;2023-01-24T16:41:31;13.77;;;10.40;;
73113;SDS011;61301;51.956;5.876;2023-01-24T16:43:57;12.80;;;9.30;;
73113;SDS011;61301;51.956;5.876;2023-01-24T16:46:23;12.93;;;9.50;;
73113;SDS011;61301;51.956;5.876;2023-01-24T16:48:49;10.35;;;8.20;;
73113;SDS011;61301;51.956;5.876;2023-01-24T16:51:16;10.60;;;7.38;;
73113;SDS011;61301;51.956;5.876;2023-01-24T16:53:44;14.90;;;10.27;;
73113;SDS011;61301;51.956;5.876;2023-01-24T16:56:10;12.43;;;9.65;;
73113;SDS011;61301;51.956;5.876;2023-01-24T16:58:36;12.32;;;9.73;;
73113;SDS011;61301;51.956;5.876;2023-01-24T17:01:06;13.35;;;8.77;;
73113;SDS011;61301;51.956;5.876;2023-01-24T17:03:36;11.73;;;9.90;;
73113;SDS011;61301;51.956;5.876;2023-01-24T17:06:09;11.52;;;9.07;;
73113;SDS011;61301;51.956;5.876;2023-01-24T17:08:37;12.05;;;9.55;;
73113;SDS011;61301;51.956;5.876;2023-01-24T17:11:07;15.00;;;10.73;;